sensor_id;sensor_type;location;lat;lon;timestamp;pressure;altitude;pressure_sealevel;temperature;humidity
32456;BME280;18912;43.270;27.942;2023-09-18T00:00:43;98700.16;;;20.51;59.32
32456;BME280;18912;43.270;27.942;2023-09-18T00:03:09;98701.81;;;20.52;59.14
32456;BME280;18912;43.270;27.942;2023-09-18T00:05:35;98702.47;;;20.37;59.42
32456;BME280;18912;43.270;27.942;2023-09-18T00:08:00;98704.41;;;20.42;58.96
32456;BME280;18912;43.270;27.942;2023-09-18T00:10:28;98700.06;;;20.46;59.33
32456;BME280;18912;43.270;27.942;2023-09-18T00:12:56;98698.44;;;20.45;59.45
32456;BME280;18912;43.270;27.942;2023-09-18T00:15:22;98685.59;;;20.51;59.76
32456;BME280;18912;43.270;27.942;2023-09-18T00:17:48;98692.09;;;20.44;60.13
32456;BME280;18912;43.270;27.942;2023-09-18T00:20:13;98690.16;;;20.40;60.40
32456;BME280;18912;43.270;27.942;2023-09-18T00:22:41;98690.38;;;20.38;59.98
32456;BME280;18912;43.270;27.942;2023-09-18T00:25:07;98686.94;;;20.26;59.91
32456;BME280;18912;43.270;27.942;2023-09-18T00:27:33;98694.16;;;20.32;59.96
32456;BME280;18912;43.270;27.942;2023-09-18T00:29:58;98687.31;;;20.35;60.17
32456;BME280;18912;43.270;27.942;2023-09-18T00:32:23;98689.16;;;20.29;60.31
32456;BME280;18912;43.270;27.942;2023-09-18T00:34:49;98684.69;;;20.23;60.46
32456;BME280;18912;43.270;27.942;2023-09-18T00:37:15;98690.19;;;20.23;60.53
32456;BME280;18912;43.270;27.942;2023-09-18T00:39:42;98678.53;;;20.16;61.02
32456;BME280;18912;43.270;27.942;2023-09-18T00:42:07;98686.94;;;20.26;60.97
32456;BME280;18912;43.270;27.942;2023-09-18T00:44:33;98680.78;;;20.19;61.09
32456;BME280;18912;43.270;27.942;2023-09-18T00:46:58;98687.69;;;20.22;60.94
32456;BME280;18912;43.270;27.942;2023-09-18T00:49:24;98688.53;;;20.22;60.51
32456;BME280;18912;43.270;27.942;2023-09-18T00:51:50;98685.63;;;20.12;59.87
32456;BME280;18912;43.270;27.942;2023-09-18T00:54:16;98689.38;;;20.06;59.79
32456;BME280;18912;43.270;27.942;2023-09-18T00:56:44;98681.63;;;19.98;59.67
32456;BME280;18912;43.270;27.942;2023-09-18T00:59:10;98679.94;;;19.97;59.65
32456;BME280;18912;43.270;27.942;2023-09-18T01:01:37;98684.41;;;20.03;59.31
32456;BME280;18912;43.270;27.942;2023-09-18T01:04:03;98685.41;;;19.97;59.28
32456;BME280;18912;43.270;27.942;2023-09-18T01:06:29;98680.31;;;19.84;59.46
32456;BME280;18912;43.270;27.942;2023-09-18T01:08:56;98676.56;;;19.74;59.72
32456;BME280;18912;43.270;27.942;2023-09-18T01:11:36;98676.91;;;19.77;59.43
32456;BME280;18912;43.270;27.942;2023-09-18T01:14:17;98675.50;;;19.75;59.94
32456;BME280;18912;43.270;27.942;2023-09-18T01:16:58;98671.59;;;19.71;59.98
32456;BME280;18912;43.270;27.942;2023-09-18T01:19:44;98666.69;;;19.73;59.88
32456;BME280;18912;43.270;27.942;2023-09-18T01:22:14;98666.84;;;19.66;60.37
32456;BME280;18912;43.270;27.942;2023-09-18T01:24:40;98669.69;;;19.71;60.65
32456;BME280;18912;43.270;27.942;2023-09-18T01:27:11;98668.34;;;19.74;60.46
32456;BME280;18912;43.270;27.942;2023-09-18T01:29:42;98665.59;;;19.74;60.66
32456;BME280;18912;43.270;27.942;2023-09-18T01:32:08;98664.22;;;19.71;60.95
32456;BME280;18912;43.270;27.942;2023-09-18T01:34:36;98666.69;;;19.73;61.10
32456;BME280;18912;43.270;27.942;2023-09-18T01:37:03;98667.38;;;19.63;61.46
32456;BME280;18912;43.270;27.942;2023-09-18T01:39:31;98675.25;;;19.76;61.50
32456;BME280;18912;43.270;27.942;2023-09-18T01:41:59;98678.66;;;19.67;62.06
32456;BME280;18912;43.270;27.942;2023-09-18T01:44:27;98655.09;;;19.49;62.02
32456;BME280;18912;43.270;27.942;2023-09-18T01:46:53;98677.50;;;19.63;61.92
32456;BME280;18912;43.270;27.942;2023-09-18T01:49:32;98664.31;;;19.60;61.92
32456;BME280;18912;43.270;27.942;2023-09-18T01:51:58;98677.19;;;19.59;61.77
32456;BME280;18912;43.270;27.942;2023-09-18T01:54:24;98676.44;;;19.64;61.71
32456;BME280;18912;43.270;27.942;2023-09-18T01:56:50;98672.03;;;19.63;61.28
32456;BME280;18912;43.270;27.942;2023-09-18T01:59:17;98675.28;;;19.60;61.15
32456;BME280;18912;43.270;27.942;2023-09-18T02:01:43;98677.38;;;19.52;61.50
32456;BME280;18912;43.270;27.942;2023-09-18T02:04:09;98671.53;;;19.49;61.49
32456;BME280;18912;43.270;27.942;2023-09-18T02:06:35;98675.22;;;19.38;61.64
32456;BME280;18912;43.270;27.942;2023-09-18T02:09:00;98658.50;;;19.39;61.04
32456;BME280;18912;43.270;27.942;2023-09-18T02:11:27;98661.31;;;19.28;60.57
32456;BME280;18912;43.270;27.942;2023-09-18T02:13:53;98672.88;;;19.30;60.09
32456;BME280;18912;43.270;27.942;2023-09-18T02:16:19;98666.72;;;19.23;59.69
32456;BME280;18912;43.270;27.942;2023-09-18T02:18:49;98663.50;;;19.26;59.75
32456;BME280;18912;43.270;27.942;2023-09-18T02:21:19;98674.78;;;19.29;59.64
32456;BME280;18912;43.270;27.942;2023-09-18T02:23:48;98681.19;;;19.35;59.89
32456;BME280;18912;43.270;27.942;2023-09-18T02:26:14;98671.72;;;19.26;60.00
32456;BME280;18912;43.270;27.942;2023-09-18T02:28:39;98670.53;;;19.22;60.47
32456;BME280;18912;43.270;27.942;2023-09-18T02:31:05;98669.53;;;19.11;61.11
32456;BME280;18912;43.270;27.942;2023-09-18T02:33:30;98666.91;;;18.88;62.32
32456;BME280;18912;43.270;27.942;2023-09-18T02:35:56;98662.88;;;18.91;62.32
32456;BME280;18912;43.270;27.942;2023-09-18T02:38:21;98670.03;;;18.92;62.79
32456;BME280;18912;43.270;27.942;2023-09-18T02:40:46;98670.69;;;18.99;62.83
32456;BME280;18912;43.270;27.942;2023-09-18T02:43:12;98681.00;;;19.08;62.76
32456;BME280;18912;43.270;27.942;2023-09-18T02:45:37;98672.84;;;19.13;62.98
32456;BME280;18912;43.270;27.942;2023-09-18T02:48:04;98676.84;;;19.22;63.81
32456;BME280;18912;43.270;27.942;2023-09-18T02:50:30;98670.94;;;19.30;63.99
32456;BME280;18912;43.270;27.942;2023-09-18T02:52:55;98680.84;;;19.48;64.29
32456;BME280;18912;43.270;27.942;2023-09-18T02:55:21;98680.84;;;19.48;65.17
32456;BME280;18912;43.270;27.942;2023-09-18T02:57:46;98682.09;;;19.57;65.34
32456;BME280;18912;43.270;27.942;2023-09-18T03:00:12;98687.16;;;19.65;65.37
32456;BME280;18912;43.270;27.942;2023-09-18T03:02:38;98685.50;;;19.64;65.56
32456;BME280;18912;43.270;27.942;2023-09-18T03:05:04;98681.09;;;19.63;66.10
32456;BME280;18912;43.270;27.942;2023-09-18T03:07:29;98681.41;;;19.67;65.94
32456;BME280;18912;43.270;27.942;2023-09-18T03:09:55;98677.16;;;19.76;65.66
32456;BME280;18912;43.270;27.942;2023-09-18T03:12:21;98682.06;;;19.74;65.70
32456;BME280;18912;43.270;27.942;2023-09-18T03:14:47;98688.00;;;19.66;66.00
32456;BME280;18912;43.270;27.942;2023-09-18T03:17:13;98677.16;;;19.76;65.63
32456;BME280;18912;43.270;27.942;2023-09-18T03:19:39;98677.50;;;19.79;65.72
32456;BME280;18912;43.270;27.942;2023-09-18T03:22:04;98679.66;;;19.77;66.06
32456;BME280;18912;43.270;27.942;2023-09-18T03:24:30;98687.38;;;19.80;66.33
32456;BME280;18912;43.270;27.942;2023-09-18T03:26:55;98680.81;;;19.81;66.67
32456;BME280;18912;43.270;27.942;2023-09-18T03:29:21;98679.28;;;19.90;66.87
32456;BME280;18912;43.270;27.942;2023-09-18T03:31:46;98677.25;;;20.02;66.79
32456;BME280;18912;43.270;27.942;2023-09-18T03:34:12;98677.03;;;20.04;67.05
32456;BME280;18912;43.270;27.942;2023-09-18T03:36:38;98679.38;;;20.17;66.92
32456;BME280;18912;43.270;27.942;2023-09-18T03:39:04;98678.88;;;20.20;66.97
32456;BME280;18912;43.270;27.942;2023-09-18T03:41:30;98675.47;;;20.13;67.15
32456;BME280;18912;43.270;27.942;2023-09-18T03:44:02;98672.47;;;20.14;66.76
32456;BME280;18912;43.270;27.942;2023-09-18T03:46:28;98676.16;;;20.20;66.41
32456;BME280;18912;43.270;27.942;2023-09-18T03:48:53;98680.56;;;20.21;66.24
32456;BME280;18912;43.270;27.942;2023-09-18T03:51:20;98680.56;;;20.21;66.00
32456;BME280;18912;43.270;27.942;2023-09-18T03:53:45;98673.47;;;20.25;65.88
32456;BME280;18912;43.270;27.942;2023-09-18T03:56:11;98676.91;;;20.37;65.67
32456;BME280;18912;43.270;27.942;2023-09-18T03:58:37;98676.66;;;20.38;65.57
32456;BME280;18912;43.270;27.942;2023-09-18T04:01:02;98673.97;;;20.43;65.23
32456;BME280;18912;43.270;27.942;2023-09-18T04:03:28;98680.34;;;20.49;64.60
32456;BME280;18912;43.270;27.942;2023-09-18T04:05:53;98679.00;;;20.52;64.48
32456;BME280;18912;43.270;27.942;2023-09-18T04:08:19;98684.75;;;20.50;64.27
32456;BME280;18912;43.270;27.942;2023-09-18T04:10:45;98691.06;;;20.51;63.99
32456;BME280;18912;43.270;27.942;2023-09-18T04:13:11;98690.06;;;20.57;64.02
32456;BME280;18912;43.270;27.942;2023-09-18T04:15:37;98693.16;;;20.65;63.15
32456;BME280;18912;43.270;27.942;2023-09-18T04:18:06;98702.94;;;20.78;63.09
32456;BME280;18912;43.270;27.942;2023-09-18T04:20:31;98707.72;;;20.87;62.85
32456;BME280;18912;43.270;27.942;2023-09-18T04:23:22;98706.41;;;20.95;62.84
32456;BME280;18912;43.270;27.942;2023-09-18T04:25:49;98699.91;;;21.01;63.07
32456;BME280;18912;43.270;27.942;2023-09-18T04:28:16;98712.69;;;21.17;62.94
32456;BME280;18912;43.270;27.942;2023-09-18T04:30:42;98707.38;;;21.37;62.52
32456;BME280;18912;43.270;27.942;2023-09-18T04:33:08;98704.78;;;21.52;62.57
32456;BME280;18912;43.270;27.942;2023-09-18T04:35:33;98715.34;;;21.70;62.17
32456;BME280;18912;43.270;27.942;2023-09-18T04:37:59;98706.16;;;21.86;61.97
32456;BME280;18912;43.270;27.942;2023-09-18T04:40:25;98715.56;;;21.95;61.64
32456;BME280;18912;43.270;27.942;2023-09-18T04:42:57;98710.06;;;22.00;61.98
32456;BME280;18912;43.270;27.942;2023-09-18T04:45:24;98699.19;;;22.25;61.56
32456;BME280;18912;43.270;27.942;2023-09-18T04:47:50;98699.28;;;22.46;61.37
32456;BME280;18912;43.270;27.942;2023-09-18T04:50:15;98708.75;;;22.65;60.81
32456;BME280;18912;43.270;27.942;2023-09-18T04:52:41;98711.53;;;22.75;60.65
32456;BME280;18912;43.270;27.942;2023-09-18T04:55:07;98702.75;;;22.88;60.81
32456;BME280;18912;43.270;27.942;2023-09-18T04:57:33;98701.13;;;23.07;60.94
32456;BME280;18912;43.270;27.942;2023-09-18T04:59:59;98709.19;;;23.34;61.00
32456;BME280;18912;43.270;27.942;2023-09-18T05:02:25;98713.34;;;23.41;61.17
32456;BME280;18912;43.270;27.942;2023-09-18T05:04:51;98702.28;;;23.71;60.38
32456;BME280;18912;43.270;27.942;2023-09-18T05:07:17;98702.84;;;23.63;58.48
32456;BME280;18912;43.270;27.942;2023-09-18T05:09:42;98700.09;;;23.53;57.50
32456;BME280;18912;43.270;27.942;2023-09-18T05:12:09;98704.25;;;23.46;58.05
32456;BME280;18912;43.270;27.942;2023-09-18T05:14:42;98702.31;;;23.41;58.13
32456;BME280;18912;43.270;27.942;2023-09-18T05:17:14;98696.22;;;23.44;58.93
32456;BME280;18912;43.270;27.942;2023-09-18T05:19:41;98699.81;;;23.70;59.25
32456;BME280;18912;43.270;27.942;2023-09-18T05:22:08;98700.34;;;23.97;60.01
32456;BME280;18912;43.270;27.942;2023-09-18T05:24:35;98707.75;;;24.22;59.28
32456;BME280;18912;43.270;27.942;2023-09-18T05:27:01;98694.91;;;24.51;58.51
32456;BME280;18912;43.270;27.942;2023-09-18T05:29:27;98699.28;;;24.67;57.73
32456;BME280;18912;43.270;27.942;2023-09-18T05:31:53;98700.84;;;24.88;56.72
32456;BME280;18912;43.270;27.942;2023-09-18T05:34:18;98702.19;;;25.39;55.23
32456;BME280;18912;43.270;27.942;2023-09-18T05:36:44;98706.41;;;25.65;53.71
32456;BME280;18912;43.270;27.942;2023-09-18T05:39:09;98697.22;;;25.70;53.28
32456;BME280;18912;43.270;27.942;2023-09-18T05:41:38;98700.88;;;26.23;51.76
32456;BME280;18912;43.270;27.942;2023-09-18T05:44:04;98697.22;;;26.74;50.81
32456;BME280;18912;43.270;27.942;2023-09-18T05:46:33;98696.72;;;26.91;49.66
32456;BME280;18912;43.270;27.942;2023-09-18T05:48:58;98706.91;;;27.51;48.22
32456;BME280;18912;43.270;27.942;2023-09-18T05:51:25;98707.44;;;27.86;47.13
32456;BME280;18912;43.270;27.942;2023-09-18T05:53:51;98701.84;;;28.18;45.82
32456;BME280;18912;43.270;27.942;2023-09-18T05:56:16;98701.91;;;28.72;44.82
32456;BME280;18912;43.270;27.942;2023-09-18T05:58:43;98709.50;;;29.29;43.98
32456;BME280;18912;43.270;27.942;2023-09-18T06:01:09;98702.91;;;29.83;42.88
32456;BME280;18912;43.270;27.942;2023-09-18T06:03:34;98704.22;;;30.08;41.31
32456;BME280;18912;43.270;27.942;2023-09-18T06:06:03;98712.13;;;30.14;40.97
32456;BME280;18912;43.270;27.942;2023-09-18T06:08:29;98712.66;;;30.25;40.37
32456;BME280;18912;43.270;27.942;2023-09-18T06:10:56;98709.03;;;30.47;40.52
32456;BME280;18912;43.270;27.942;2023-09-18T06:13:23;98714.59;;;30.86;39.77
32456;BME280;18912;43.270;27.942;2023-09-18T06:15:50;98709.34;;;30.93;38.79
32456;BME280;18912;43.270;27.942;2023-09-18T06:18:18;98719.75;;;31.18;38.84
32456;BME280;18912;43.270;27.942;2023-09-18T06:20:47;98722.91;;;31.42;38.40
32456;BME280;18912;43.270;27.942;2023-09-18T06:23:13;98722.75;;;31.39;38.35
32456;BME280;18912;43.270;27.942;2023-09-18T06:25:39;98727.00;;;31.96;37.60
32456;BME280;18912;43.270;27.942;2023-09-18T06:28:05;98726.72;;;32.35;37.23
32456;BME280;18912;43.270;27.942;2023-09-18T06:30:31;98719.44;;;31.96;36.56
32456;BME280;18912;43.270;27.942;2023-09-18T06:32:59;98732.72;;;32.16;37.32
32456;BME280;18912;43.270;27.942;2023-09-18T06:35:25;98731.31;;;32.40;35.50
32456;BME280;18912;43.270;27.942;2023-09-18T06:37:50;98740.06;;;32.38;35.73
32456;BME280;18912;43.270;27.942;2023-09-18T06:40:16;98733.94;;;32.53;34.39
32456;BME280;18912;43.270;27.942;2023-09-18T06:42:42;98739.81;;;32.60;34.50
32456;BME280;18912;43.270;27.942;2023-09-18T06:45:08;98732.47;;;32.85;34.12
32456;BME280;18912;43.270;27.942;2023-09-18T06:47:34;98739.31;;;33.04;33.61
32456;BME280;18912;43.270;27.942;2023-09-18T06:50:00;98734.22;;;33.27;32.59
32456;BME280;18912;43.270;27.942;2023-09-18T06:52:26;98735.88;;;32.90;32.60
32456;BME280;18912;43.270;27.942;2023-09-18T06:54:53;98733.09;;;32.90;32.81
32456;BME280;18912;43.270;27.942;2023-09-18T06:57:19;98739.03;;;32.97;32.69
32456;BME280;18912;43.270;27.942;2023-09-18T06:59:47;98732.59;;;32.88;32.29
32456;BME280;18912;43.270;27.942;2023-09-18T07:02:13;98732.28;;;33.19;31.62
32456;BME280;18912;43.270;27.942;2023-09-18T07:04:41;98732.59;;;33.67;31.17
32456;BME280;18912;43.270;27.942;2023-09-18T07:07:11;98730.53;;;33.97;30.71
32456;BME280;18912;43.270;27.942;2023-09-18T07:09:38;98726.41;;;33.74;30.68
32456;BME280;18912;43.270;27.942;2023-09-18T07:12:04;98726.81;;;34.05;30.31
32456;BME280;18912;43.270;27.942;2023-09-18T07:14:29;98731.03;;;34.11;30.02
32456;BME280;18912;43.270;27.942;2023-09-18T07:16:56;98729.41;;;34.79;29.01
32456;BME280;18912;43.270;27.942;2023-09-18T07:19:21;98722.38;;;34.73;28.91
32456;BME280;18912;43.270;27.942;2023-09-18T07:21:47;98728.38;;;34.96;28.72
32456;BME280;18912;43.270;27.942;2023-09-18T07:24:13;98725.84;;;35.54;28.28
32456;BME280;18912;43.270;27.942;2023-09-18T07:26:44;98740.28;;;35.41;28.01
32456;BME280;18912;43.270;27.942;2023-09-18T07:29:10;98718.25;;;35.83;27.55
32456;BME280;18912;43.270;27.942;2023-09-18T07:31:36;98732.31;;;35.31;26.63
32456;BME280;18912;43.270;27.942;2023-09-18T07:34:02;98737.94;;;35.43;28.17
32456;BME280;18912;43.270;27.942;2023-09-18T07:36:29;98722.50;;;35.13;26.94
32456;BME280;18912;43.270;27.942;2023-09-18T07:38:55;98724.13;;;35.78;27.32
32456;BME280;18912;43.270;27.942;2023-09-18T07:41:22;98734.13;;;35.75;25.73
32456;BME280;18912;43.270;27.942;2023-09-18T07:43:48;98743.94;;;35.29;27.00
32456;BME280;18912;43.270;27.942;2023-09-18T07:46:13;98743.22;;;35.44;27.08
32456;BME280;18912;43.270;27.942;2023-09-18T07:48:39;98737.69;;;35.36;27.33
32456;BME280;18912;43.270;27.942;2023-09-18T07:51:05;98738.06;;;35.34;27.52
32456;BME280;18912;43.270;27.942;2023-09-18T07:53:30;98729.28;;;35.48;27.07
32456;BME280;18912;43.270;27.942;2023-09-18T07:55:57;98729.38;;;33.98;28.64
32456;BME280;18912;43.270;27.942;2023-09-18T07:58:25;98733.19;;;34.26;28.56
32456;BME280;18912;43.270;27.942;2023-09-18T08:00:56;98736.66;;;34.56;28.19
32456;BME280;18912;43.270;27.942;2023-09-18T08:03:23;98731.75;;;34.77;27.46
32456;BME280;18912;43.270;27.942;2023-09-18T08:05:51;98747.53;;;34.69;28.60
32456;BME280;18912;43.270;27.942;2023-09-18T08:08:18;98738.22;;;34.33;29.22
32456;BME280;18912;43.270;27.942;2023-09-18T08:10:54;98735.78;;;34.43;28.90
32456;BME280;18912;43.270;27.942;2023-09-18T08:13:20;98744.75;;;33.92;29.72
32456;BME280;18912;43.270;27.942;2023-09-18T08:15:46;98742.03;;;34.04;29.62
32456;BME280;18912;43.270;27.942;2023-09-18T08:18:12;98745.22;;;33.94;30.17
32456;BME280;18912;43.270;27.942;2023-09-18T08:20:43;98733.44;;;33.68;30.42
32456;BME280;18912;43.270;27.942;2023-09-18T08:23:10;98737.63;;;34.27;29.89
32456;BME280;18912;43.270;27.942;2023-09-18T08:25:36;98741.00;;;34.65;29.15
32456;BME280;18912;43.270;27.942;2023-09-18T08:28:02;98741.84;;;35.02;28.85
32456;BME280;18912;43.270;27.942;2023-09-18T08:30:30;98741.72;;;34.74;28.83
32456;BME280;18912;43.270;27.942;2023-09-18T08:32:55;98737.94;;;33.93;29.40
32456;BME280;18912;43.270;27.942;2023-09-18T08:35:21;98737.59;;;34.60;29.26
32456;BME280;18912;43.270;27.942;2023-09-18T08:37:48;98734.59;;;34.44;30.05
32456;BME280;18912;43.270;27.942;2023-09-18T08:40:14;98741.69;;;34.18;30.27
32456;BME280;18912;43.270;27.942;2023-09-18T08:42:47;98734.13;;;34.30;31.34
32456;BME280;18912;43.270;27.942;2023-09-18T08:45:23;98726.25;;;33.91;32.74
32456;BME280;18912;43.270;27.942;2023-09-18T08:47:51;98722.38;;;33.51;32.84
32456;BME280;18912;43.270;27.942;2023-09-18T08:50:17;98723.41;;;33.38;32.79
32456;BME280;18912;43.270;27.942;2023-09-18T08:52:45;98729.56;;;33.31;33.46
32456;BME280;18912;43.270;27.942;2023-09-18T08:55:12;98730.66;;;32.43;34.36
32456;BME280;18912;43.270;27.942;2023-09-18T08:57:39;98726.81;;;32.64;33.72
32456;BME280;18912;43.270;27.942;2023-09-18T09:00:07;98723.50;;;32.71;33.77
32456;BME280;18912;43.270;27.942;2023-09-18T09:02:34;98719.19;;;32.73;33.63
32456;BME280;18912;43.270;27.942;2023-09-18T09:04:59;98722.53;;;32.03;34.00
32456;BME280;18912;43.270;27.942;2023-09-18T09:07:26;98718.28;;;32.52;34.65
32456;BME280;18912;43.270;27.942;2023-09-18T09:09:51;98722.34;;;32.26;34.11
32456;BME280;18912;43.270;27.942;2023-09-18T09:12:50;98727.00;;;32.59;32.46
32456;BME280;18912;43.270;27.942;2023-09-18T09:15:16;98729.81;;;33.18;32.02
32456;BME280;18912;43.270;27.942;2023-09-18T09:17:43;98722.53;;;32.58;33.70
32456;BME280;18912;43.270;27.942;2023-09-18T09:20:11;98733.94;;;32.53;33.20
32456;BME280;18912;43.270;27.942;2023-09-18T09:22:38;98730.63;;;32.60;32.95
32456;BME280;18912;43.270;27.942;2023-09-18T09:25:27;98719.59;;;32.63;32.61
32456;BME280;18912;43.270;27.942;2023-09-18T09:27:53;98732.72;;;33.30;32.35
32456;BME280;18912;43.270;27.942;2023-09-18T09:30:21;98723.88;;;33.40;31.56
32456;BME280;18912;43.270;27.942;2023-09-18T09:32:49;98732.22;;;33.28;31.72
32456;BME280;18912;43.270;27.942;2023-09-18T09:35:25;98725.44;;;33.58;30.57
32456;BME280;18912;43.270;27.942;2023-09-18T09:37:59;98743.88;;;33.79;30.36
32456;BME280;18912;43.270;27.942;2023-09-18T09:40:27;98726.16;;;33.67;30.40
32456;BME280;18912;43.270;27.942;2023-09-18T09:42:57;98742.50;;;33.65;29.73
32456;BME280;18912;43.270;27.942;2023-09-18T09:45:30;98737.34;;;34.53;29.75
32456;BME280;18912;43.270;27.942;2023-09-18T09:47:57;98727.72;;;33.76;31.50
32456;BME280;18912;43.270;27.942;2023-09-18T09:50:23;98733.78;;;32.41;32.55
32456;BME280;18912;43.270;27.942;2023-09-18T09:52:51;98730.59;;;31.88;33.65
32456;BME280;18912;43.270;27.942;2023-09-18T09:55:32;98723.56;;;32.83;32.46
32456;BME280;18912;43.270;27.942;2023-09-18T09:58:00;98732.44;;;31.92;32.90
32456;BME280;18912;43.270;27.942;2023-09-18T10:00:41;98721.84;;;32.70;31.35
32456;BME280;18912;43.270;27.942;2023-09-18T10:03:10;98723.97;;;32.73;30.58
32456;BME280;18912;43.270;27.942;2023-09-18T10:05:38;98726.38;;;31.65;31.49
32456;BME280;18912;43.270;27.942;2023-09-18T10:08:08;98730.41;;;32.27;31.53
32456;BME280;18912;43.270;27.942;2023-09-18T10:10:42;98709.59;;;31.65;32.37
32456;BME280;18912;43.270;27.942;2023-09-18T10:13:41;98718.78;;;31.48;32.56
32456;BME280;18912;43.270;27.942;2023-09-18T10:16:12;98714.38;;;31.64;32.08
32456;BME280;18912;43.270;27.942;2023-09-18T10:21:35;98715.78;;;32.13;31.60
32456;BME280;18912;43.270;27.942;2023-09-18T10:24:25;98712.19;;;31.87;32.28
32456;BME280;18912;43.270;27.942;2023-09-18T10:29:22;98712.72;;;30.73;32.95
32456;BME280;18912;43.270;27.942;2023-09-18T10:31:50;98702.34;;;31.21;33.08
32456;BME280;18912;43.270;27.942;2023-09-18T10:34:17;98713.84;;;31.79;31.09
32456;BME280;18912;43.270;27.942;2023-09-18T10:36:46;98706.97;;;31.60;31.75
32456;BME280;18912;43.270;27.942;2023-09-18T10:39:13;98704.00;;;31.65;31.01
32456;BME280;18912;43.270;27.942;2023-09-18T10:41:39;98700.69;;;31.11;31.40
32456;BME280;18912;43.270;27.942;2023-09-18T10:44:06;98696.91;;;31.24;31.36
32456;BME280;18912;43.270;27.942;2023-09-18T10:46:33;98693.97;;;31.21;31.86
32456;BME280;18912;43.270;27.942;2023-09-18T10:49:00;98693.63;;;31.22;33.95
32456;BME280;18912;43.270;27.942;2023-09-18T10:51:27;98692.13;;;30.99;33.77
32456;BME280;18912;43.270;27.942;2023-09-18T10:53:56;98688.00;;;30.88;34.48
32456;BME280;18912;43.270;27.942;2023-09-18T10:56:22;98691.47;;;30.46;33.53
32456;BME280;18912;43.270;27.942;2023-09-18T10:58:59;98682.25;;;30.85;35.00
32456;BME280;18912;43.270;27.942;2023-09-18T11:01:25;98688.13;;;30.05;36.50
32456;BME280;18912;43.270;27.942;2023-09-18T11:03:53;98689.66;;;30.11;34.99
32456;BME280;18912;43.270;27.942;2023-09-18T11:06:20;98691.78;;;30.45;36.21
32456;BME280;18912;43.270;27.942;2023-09-18T11:08:53;98679.75;;;28.67;37.63
32456;BME280;18912;43.270;27.942;2023-09-18T11:11:26;98681.63;;;29.07;38.05
32456;BME280;18912;43.270;27.942;2023-09-18T11:13:56;98676.56;;;29.09;38.31
32456;BME280;18912;43.270;27.942;2023-09-18T11:19:07;98684.09;;;29.44;38.54
32456;BME280;18912;43.270;27.942;2023-09-18T11:21:33;98687.72;;;29.89;36.97
32456;BME280;18912;43.270;27.942;2023-09-18T11:24:07;98689.44;;;30.38;36.64
32456;BME280;18912;43.270;27.942;2023-09-18T11:26:39;98680.78;;;29.07;37.67
32456;BME280;18912;43.270;27.942;2023-09-18T11:29:09;98685.09;;;29.48;37.83
32456;BME280;18912;43.270;27.942;2023-09-18T11:34:15;98690.66;;;28.64;39.80
32456;BME280;18912;43.270;27.942;2023-09-18T11:36:41;98681.56;;;29.34;38.74
32456;BME280;18912;43.270;27.942;2023-09-18T11:39:06;98686.34;;;29.20;38.96
32456;BME280;18912;43.270;27.942;2023-09-18T11:41:35;98672.41;;;28.85;39.88
32456;BME280;18912;43.270;27.942;2023-09-18T11:46:38;98673.16;;;28.63;40.67
32456;BME280;18912;43.270;27.942;2023-09-18T11:49:07;98670.94;;;29.59;38.61
32456;BME280;18912;43.270;27.942;2023-09-18T11:51:35;98663.84;;;28.81;40.40
32456;BME280;18912;43.270;27.942;2023-09-18T11:54:02;98666.25;;;28.74;40.24
32456;BME280;18912;43.270;27.942;2023-09-18T11:56:29;98672.22;;;28.54;39.84
32456;BME280;18912;43.270;27.942;2023-09-18T11:58:55;98668.50;;;28.45;40.40
32456;BME280;18912;43.270;27.942;2023-09-18T12:01:21;98665.53;;;28.28;39.85
32456;BME280;18912;43.270;27.942;2023-09-18T12:03:55;98654.19;;;28.24;41.00
32456;BME280;18912;43.270;27.942;2023-09-18T12:06:21;98652.34;;;28.20;40.39
32456;BME280;18912;43.270;27.942;2023-09-18T12:08:48;98656.03;;;28.83;39.44
32456;BME280;18912;43.270;27.942;2023-09-18T12:11:16;98651.50;;;28.46;39.86
32456;BME280;18912;43.270;27.942;2023-09-18T12:13:46;98661.00;;;28.32;39.69
32456;BME280;18912;43.270;27.942;2023-09-18T12:16:13;98658.91;;;27.64;40.67
32456;BME280;18912;43.270;27.942;2023-09-18T12:18:45;98661.34;;;27.85;41.51
32456;BME280;18912;43.270;27.942;2023-09-18T12:21:13;98681.66;;;27.66;39.95
32456;BME280;18912;43.270;27.942;2023-09-18T12:23:40;98666.56;;;28.18;37.41
32456;BME280;18912;43.270;27.942;2023-09-18T12:26:11;98681.66;;;27.99;39.93
32456;BME280;18912;43.270;27.942;2023-09-18T12:28:39;98660.25;;;27.35;41.19
32456;BME280;18912;43.270;27.942;2023-09-18T12:31:04;98672.69;;;27.56;38.21
32456;BME280;18912;43.270;27.942;2023-09-18T12:33:34;98672.66;;;27.88;39.45
32456;BME280;18912;43.270;27.942;2023-09-18T12:36:02;98672.28;;;27.95;39.16
32456;BME280;18912;43.270;27.942;2023-09-18T12:38:28;98661.09;;;27.67;38.90
32456;BME280;18912;43.270;27.942;2023-09-18T12:40:54;98652.94;;;27.57;39.44
32456;BME280;18912;43.270;27.942;2023-09-18T12:43:21;98652.84;;;28.08;37.55
32456;BME280;18912;43.270;27.942;2023-09-18T12:45:51;98644.72;;;28.39;38.86
32456;BME280;18912;43.270;27.942;2023-09-18T12:48:18;98640.22;;;27.84;40.31
32456;BME280;18912;43.270;27.942;2023-09-18T12:50:43;98643.69;;;28.21;39.45
32456;BME280;18912;43.270;27.942;2023-09-18T12:53:13;98639.56;;;28.32;39.06
32456;BME280;18912;43.270;27.942;2023-09-18T12:55:40;98650.28;;;28.52;37.80
32456;BME280;18912;43.270;27.942;2023-09-18T12:58:06;98648.69;;;27.46;40.64
32456;BME280;18912;43.270;27.942;2023-09-18T13:00:35;98643.31;;;27.36;41.75
32456;BME280;18912;43.270;27.942;2023-09-18T13:03:02;98643.81;;;27.20;41.58
32456;BME280;18912;43.270;27.942;2023-09-18T13:05:30;98641.84;;;28.30;39.08